Home > Products > Valid Products > MTR

000
SAUS44 KEWX 291759
MTRATT
SPECI KATT 291758Z AUTO 17008G15KT 4SM -RA BR BKN014 OVC020 26/23
A2970 RMK AO2 P0000 T02560233





000
SAUS44 KEWX 291659 COR
MTRATT
METAR KATT 291651Z AUTO VRB06KT 4SM HZ SCT020 BKN027 OVC049 27/23
A2970 RMK AO2 SLP045 T02720233





000
SAUS44 KEWX 291553
MTRATT
METAR KATT 291551Z AUTO 17011G19KT 4SM HZ BKN020 OVC026 27/23 A2971
RMK AO2 SLP048 T02670228





000
SAUS44 KEWX 291459 COR
MTRATT
METAR KATT 291451Z AUTO 17007G15KT 4SM HZ OVC018 26/23 A2972 RMK AO2
SLP050 T02560228 50005





000
SAUS44 KEWX 291459 COR
MTRATT
METAR KATT 291451Z AUTO 17007G15KT 4SM HZ OVC018 26/23 A2972 RMK AO2
SLP050 T02560228 50005





000
SAUS44 KEWX 291429
MTRATT
SPECI KATT 291428Z AUTO VRB06KT 4SM HZ BKN016 OVC022 26/23 A2972 RMK
AO2 T02560228





000
SAUS44 KEWX 291354
MTRATT
METAR KATT 291351Z AUTO 17007KT 4SM HZ OVC014 26/23 A2972 RMK AO2
SLP050 T02560228





000
SAUS44 KEWX 291252
MTRATT
METAR KATT 291251Z AUTO 17007KT 3SM BR BKN013 OVC021 25/23 A2971 RMK
AO2 SLP046 T02500228





000
SAUS44 KEWX 291152
MTRATT
METAR KATT 291151Z AUTO 16007KT 130V190 5SM BR BKN010 OVC015 24/23
A2970 RMK AO2 CIG 008V013 SLP045 60000 T02440228 10244 20239 58007





000
SAUS44 KEWX 291152
MTRATT
METAR KATT 291151Z AUTO 16007KT 130V190 5SM BR BKN010 OVC015 24/23
A2970 RMK AO2 CIG 008V013 SLP045 60000 T02440228 10244 20239 58007





000
SAUS44 KEWX 291052
MTRATT
METAR KATT 291051Z AUTO 14005KT 7SM OVC010 24/22 A2971 RMK AO2 CIG
008V013 SLP048 T02390222





000
SAUS44 KEWX 290954
MTRATT
METAR KATT 290951Z AUTO 16006KT 7SM BKN011 OVC017 24/22 A2973 RMK
AO2 RAB29E38 SLP052 P0000 T02390222





000
SAUS44 KEWX 290954
MTRATT
METAR KATT 290951Z AUTO 16006KT 7SM BKN011 OVC017 24/22 A2973 RMK
AO2 RAB29E38 SLP052 P0000 T02390222





000
SAUS44 KEWX 290950
MTRATT
SPECI KATT 290949Z AUTO VRB05KT 7SM BKN011 OVC019 24/22 A2973 RMK
AO2 RAB29E38 P0000





000
SAUS44 KEWX 290922
MTRATT
SPECI KATT 290921Z AUTO 16005KT 8SM SCT012 BKN016 OVC023 24/22 A2973
RMK AO2 T02390222





000
SAUS44 KEWX 290852
MTRATT
METAR KATT 290851Z AUTO 14008KT 120V190 7SM BKN011 OVC019 24/22
A2973 RMK AO2 SLP054 60000 T02390222 58016





000
SAUS44 KEWX 290759 COR
MTRATT
METAR KATT 290751Z AUTO 13003KT 6SM BR OVC012 24/22 A2975 RMK AO2
RAE00 SLP060 P0000 T02390222





000
SAUS44 KEWX 290652
MTRATT
METAR KATT 290651Z AUTO 14007KT 5SM -RA BR BKN014 OVC021 24/22 A2977
RMK AO2 RAE13B38 SLP067 P0000 T02390222





000
SAUS44 KEWX 290652
MTRATT
METAR KATT 290651Z AUTO 14007KT 5SM -RA BR BKN014 OVC021 24/22 A2977
RMK AO2 RAE13B38 SLP067 P0000 T02390222





000
SAUS44 KEWX 290607
MTRATT
SPECI KATT 290604Z AUTO 14005KT 6SM -RA BR BKN014 OVC022 24/22 A2978
RMK AO2 P0000 T02390222





000
SAUS44 KEWX 290554
MTRATT
METAR KATT 290551Z AUTO 13005KT 7SM -RA BKN015 OVC023 24/22 A2978
RMK AO2 RAB33 SLP072 P0000 60000 T02390222 10272 20239 403060172
57004





000
SAUS44 KEWX 290550
MTRATT
SPECI KATT 290549Z AUTO 13006KT 7SM -RA BKN017 OVC023 24/22 A2978
RMK AO2 RAB33 P0000





000
SAUS44 KEWX 290550
MTRATT
SPECI KATT 290549Z AUTO 13006KT 7SM -RA BKN017 OVC023 24/22 A2978
RMK AO2 RAB33 P0000





000
SAUS44 KEWX 290459 COR
MTRATT
METAR KATT 290451Z AUTO 14007KT 7SM BKN014 OVC029 24/22 A2979 RMK
AO2 SLP076 T02440217





000
SAUS44 KEWX 290459 COR
MTRATT
METAR KATT 290451Z AUTO 14007KT 7SM BKN014 OVC029 24/22 A2979 RMK
AO2 SLP076 T02440217





000
SAUS44 KEWX 290441 COR
MTRATT
SPECI KATT 290433Z AUTO 14011G18KT 7SM BKN015 BKN060 24/22 A2979 RMK
AO2 T02440217





000
SAUS44 KEWX 290441 COR
MTRATT
SPECI KATT 290433Z AUTO 14011G18KT 7SM BKN015 BKN060 24/22 A2979 RMK
AO2 T02440217





000
SAUS44 KEWX 290406
MTRATT
SPECI KATT 290405Z AUTO 14011G20KT 7SM SCT016 BKN060 25/22 A2978 RMK
AO2 T02500217





000
SAUS44 KEWX 290354
MTRATT
METAR KATT 290351Z AUTO 13012G19KT 7SM BKN016 25/22 A2978 RMK AO2
SLP071 T02500222





000
SAUS44 KEWX 290354
MTRATT
METAR KATT 290351Z AUTO 13012G19KT 7SM BKN016 25/22 A2978 RMK AO2
SLP071 T02500222





000
SAUS44 KEWX 290309
MTRATT
SPECI KATT 290308Z AUTO 14007KT 110V170 6SM BR OVC014 25/23 A2978
RMK AO2 T02500228





000
SAUS44 KEWX 290254
MTRATT
METAR KATT 290251Z AUTO 14008KT 6SM HZ BKN016 OVC024 26/23 A2977 RMK
AO2 SLP070 60000 T02560228 53005





000
SAUS44 KEWX 290254
MTRATT
METAR KATT 290251Z AUTO 14008KT 6SM HZ BKN016 OVC024 26/23 A2977 RMK
AO2 SLP070 60000 T02560228 53005





000
SAUS44 KEWX 290153
MTRATT
METAR KATT 290151Z AUTO 14006KT 7SM BKN018 BKN028 BKN040 26/23 A2977
RMK AO2 RAB13E26 SLP069 P0000 T02560228





000
SAUS44 KEWX 290059
MTRATT
SPECI KATT 290058Z AUTO 14010KT 120V180 6SM HZ BKN020 BKN027 OVC043
27/22 A2976 RMK AO2 T02670222





000
SAUS44 KEWX 290020
MTRATT
SPECI KATT 290019Z AUTO 16005KT 5SM HZ BKN019 BKN024 BKN038 27/23
A2976 RMK AO2 T02670228





000
SAUS44 KEWX 290003
MTRATT
SPECI KATT 290002Z AUTO 16006KT 6SM HZ SCT023 BKN031 OVC050 27/22
A2976 RMK AO2 T02670222





000
SAUS44 KEWX 290000 COR
MTRATT
METAR KATT 282351Z AUTO 15006KT 6SM HZ BKN029 BKN034 OVC041 27/22
A2976 RMK AO2 RAB32E42 SLP065 P0000 60000 T02720222 10306 20272
53001





000
SAUS44 KEWX 290000 COR
MTRATT
METAR KATT 282351Z AUTO 15006KT 6SM HZ BKN029 BKN034 OVC041 27/22
A2976 RMK AO2 RAB32E42 SLP065 P0000 60000 T02720222 10306 20272
53001





000
SAUS44 KEWX 282359 COR
MTRATT
METAR KATT 282351Z AUTO 15006KT 6SM HZ BKN029 BKN034 OVC041 27/22
A2976 RMK AO2 RAB32E42 SLP065 P0000 60000 T02720222 10306 20272
53001





000
SAUS44 KEWX 282359 COR
MTRATT
METAR KATT 282351Z AUTO 15006KT 6SM HZ BKN029 BKN034 OVC041 27/22
A2976 RMK AO2 RAB32E42 SLP065 P0000 60000 T02720222 10306 20272
53001





000
SAUS44 KEWX 282350
MTRATT
SPECI KATT 282347Z AUTO 17006KT 7SM BKN029 BKN036 27/22 A2975 RMK
AO2 RAB32E42 P0000





000
SAUS44 KEWX 282254
MTRATT
METAR KATT 282251Z AUTO 11007KT 10SM BKN041 OVC050 28/19 A2975 RMK
AO2 SLP062 T02830194





000
SAUS44 KEWX 282159 COR
MTRATT
METAR KATT 282151Z AUTO 13007G15KT 090V160 10SM BKN049 OVC065 29/19
A2975 RMK AO2 SLP063 T02940194





000
SAUS44 KEWX 282059 COR
MTRATT
METAR KATT 282051Z AUTO 10008G15KT 10SM CLR 30/18 A2977 RMK AO2
SLP069 T03000178 56023





000
SAUS44 KEWX 281952
MTRATT
METAR KATT 281951Z AUTO 12008KT 090V160 10SM CLR 29/19 A2978 RMK AO2
SLP074 T02940189





000
SAUS44 KEWX 281859 COR
MTRATT
METAR KATT 281851Z AUTO 12008G15KT 10SM FEW038 29/19 A2981 RMK AO2
SLP083 T02890189





000
SAUS44 KEWX 281752
MTRATT
METAR KATT 281751Z AUTO VRB05KT 10SM CLR 28/19 A2984 RMK AO2 SLP094
T02830194 10283 20194 58013





000
SAUS44 KEWX 281704
MTRATT
SPECI KATT 281702Z AUTO 13009KT 10SM FEW029 27/18 A2987 RMK AO2
T02720183





000
SAUS44 KEWX 281659 COR
MTRATT
METAR KATT 281651Z AUTO VRB04KT 10SM BKN029 26/19 A2987 RMK AO2
SLP106 T02610189





000
SAUS44 KEWX 281659 COR
MTRATT
METAR KATT 281651Z AUTO VRB04KT 10SM BKN029 26/19 A2987 RMK AO2
SLP106 T02610189





000
SAUS44 KEWX 281644 COR
MTRATT
SPECI KATT 281636Z AUTO 16008G16KT 140V200 10SM BKN028 26/19 A2988
RMK AO2 T02610189





000
SAUS44 KEWX 281553
MTRATT
METAR KATT 281551Z AUTO 14007KT 10SM FEW024 26/19 A2988 RMK AO2
SLP108 T02560194





000
SAUS44 KEWX 281452
MTRATT
METAR KATT 281451Z AUTO 16006KT 10SM FEW015 24/19 A2988 RMK AO2
SLP107 T02390189 51016





000
SAUS44 KEWX 281354
MTRATT
METAR KATT 281351Z AUTO 15007KT 8SM FEW010 22/19 A2986 RMK AO2
SLP102 T02220189





000
SAUS44 KEWX 281354
MTRATT
METAR KATT 281351Z AUTO 15007KT 8SM FEW010 22/19 A2986 RMK AO2
SLP102 T02220189





000
SAUS44 KEWX 281344
MTRATT
SPECI KATT 281342Z AUTO VRB04KT 8SM FEW010 22/19 A2986 RMK AO2
T02170189





000
SAUS44 KEWX 281252
MTRATT
METAR KATT 281251Z AUTO VRB05KT 7SM BKN012 21/19 A2985 RMK AO2
SLP097 T02060189





000
SAUS44 KEWX 281152
MTRATT
METAR KATT 281151Z AUTO VRB04KT 7SM BKN011 19/18 A2983 RMK AO2
SLP089 T01940183 10200 20172 53016





000
SAUS44 KEWX 281123
MTRATT
SPECI KATT 281122Z AUTO 16004KT 8SM BKN011 OVC014 20/18 A2982 RMK
AO2 CIG 008V012 T02000183





000
SAUS44 KEWX 281059 COR
MTRATT
METAR KATT 281051Z AUTO 15004KT 9SM OVC007 19/18 A2980 RMK AO2 CIG
007V011 SLP079 T01940183





000
SAUS44 KEWX 281059 COR
MTRATT
METAR KATT 281051Z AUTO 15004KT 9SM OVC007 19/18 A2980 RMK AO2 CIG
007V011 SLP079 T01940183





000
SAUS44 KEWX 281026
MTRATT
SPECI KATT 281024Z AUTO 16006KT 7SM OVC005 19/18 A2980 RMK AO2 CIG
003V007 T01940183





000
SAUS44 KEWX 281007
MTRATT
SPECI KATT 281006Z AUTO VRB05KT 3SM BR OVC003 19/18 A2979 RMK AO2
T01890183





000
SAUS44 KEWX 280959
MTRATT
SPECI KATT 280958Z AUTO 15005KT 2 1/2SM BR OVC003 19/18 A2979 RMK
AO2 CIG 002V007 T01890183





000
SAUS44 KEWX 280954
MTRATT
METAR KATT 280951Z AUTO VRB05KT 2 1/2SM BR OVC005 19/18 A2978 RMK
AO2 CIG 002V007 SLP073 T01890178





000
SAUS44 KEWX 280914 COR
MTRATT
SPECI KATT 280906Z AUTO 00000KT 10SM BKN007 18/16 A2978 RMK AO2
T01780161





000
SAUS44 KEWX 280854
MTRATT
METAR KATT 280851Z AUTO 00000KT 10SM FEW005 18/16 A2978 RMK AO2
SLP072 T01830161 58002





000
SAUS44 KEWX 280815
MTRATT
SPECI KATT 280812Z AUTO 00000KT 10SM FEW006 18/15 A2978 RMK AO2
T01830150





000
SAUS44 KEWX 280752
MTRATT
METAR KATT 280751Z AUTO 00000KT 10SM CLR 19/14 A2978 RMK AO2 SLP071
T01890144





000
SAUS44 KEWX 280722
MTRATT
SPECI KATT 280721Z AUTO 11003KT 10SM FEW009 18/14 A2979 RMK AO2
T01780144





000
SAUS44 KEWX 280652
MTRATT
METAR KATT 280651Z AUTO 00000KT 10SM CLR 17/14 A2979 RMK AO2 SLP078
T01720139





000
SAUS44 KEWX 280554
MTRATT
METAR KATT 280551Z AUTO 00000KT 10SM CLR 18/13 A2979 RMK AO2 SLP075
T01830133 10300 20178 403220167 51010





000
SAUS44 KEWX 280453
MTRATT
METAR KATT 280451Z AUTO 00000KT 10SM CLR 19/12 A2979 RMK AO2 SLP076
T01890122





000
SAUS44 KEWX 280359 COR
MTRATT
METAR KATT 280351Z AUTO 00000KT 10SM CLR 20/11 A2978 RMK AO2 SLP076
T02000111





000
SAUS44 KEWX 280253
MTRATT
METAR KATT 280251Z AUTO 01003KT 10SM CLR 22/10 A2976 RMK AO2 SLP068
T02170100 53013





000
SAUS44 KEWX 280154
MTRATT
METAR KATT 280151Z AUTO 00000KT 10SM CLR 23/11 A2974 RMK AO2 SLP060
T02280106





000
SAUS44 KEWX 280059 COR
MTRATT
METAR KATT 280051Z AUTO 00000KT 10SM CLR 26/10 A2972 RMK AO2 SLP056
T02560100





000
SAUS44 KEWX 272354
MTRATT
METAR KATT 272351Z AUTO 36003KT 10SM CLR 29/06 A2972 RMK AO2 SLP052
T02940061 10322 20289 55006





000
SAUS44 KEWX 272354
MTRATT
METAR KATT 272351Z AUTO 36003KT 10SM CLR 29/06 A2972 RMK AO2 SLP052
T02940061 10322 20289 55006





000
SAUS44 KEWX 272254
MTRATT
METAR KATT 272251Z AUTO 28004KT 10SM CLR 31/05 A2971 RMK AO2 SLP050
T03110050





000
SAUS44 KEWX 272159 COR
MTRATT
METAR KATT 272151Z AUTO 31004KT 10SM CLR 31/05 A2972 RMK AO2 SLP052
T03110050





000
SAUS44 KEWX 272054
MTRATT
METAR KATT 272051Z AUTO 10SM CLR 32/07 A2974 RMK AO2 SLP058
T03170072 58007





000
SAUS44 KEWX 272054
MTRATT
METAR KATT 272051Z AUTO 10SM CLR 32/07 A2974 RMK AO2 SLP058
T03170072 58007





000
SAUS44 KEWX 271952
MTRATT
METAR KATT 271951Z AUTO 00000KT 10SM CLR 32/02 A2976 RMK AO2 SLP065
T03170022





000
SAUS44 KEWX 271853
MTRATT
METAR KATT 271851Z AUTO 29006KT 10SM CLR 31/06 A2976 RMK AO2 SLP064
T03060056





000
SAUS44 KEWX 271853
MTRATT
METAR KATT 271851Z AUTO 29006KT 10SM CLR 31/06 A2976 RMK AO2 SLP064
T03060056





000
SAUS44 KEWX 271754
MTRATT
METAR KATT 271751Z AUTO VRB05KT 10SM CLR 30/13 A2976 RMK AO2 SLP063
T03000133 10300 20167 51013





000
SAUS44 KEWX 271654
MTRATT
METAR KATT 271651Z AUTO 31006KT 10SM CLR 28/16 A2975 RMK AO2 SLP062
T02780156





000
SAUS44 KEWX 271559 COR
MTRATT
METAR KATT 271551Z AUTO VRB06KT 10SM CLR 24/16 A2974 RMK AO2 SLP059
T02440156





000
SAUS44 KEWX 271459 COR
MTRATT
METAR KATT 271451Z AUTO 30008G16KT 10SM CLR 22/17 A2972 RMK AO2
SLP054 T02170167 53002





000
SAUS44 KEWX 271353
MTRATT
METAR KATT 271351Z AUTO 31004KT 10SM CLR 19/17 A2971 RMK AO2 SLP053
T01890167





000
SAUS44 KEWX 271254
MTRATT
METAR KATT 271251Z AUTO 30007KT 10SM CLR 17/16 A2971 RMK AO2 SLP053
T01670156





000
SAUS44 KEWX 271254
MTRATT
METAR KATT 271251Z AUTO 30007KT 10SM CLR 17/16 A2971 RMK AO2 SLP053
T01670156





000
SAUS44 KEWX 271154
MTRATT
METAR KATT 271151Z AUTO 22003KT 8SM CLR 17/16 A2972 RMK AO2 SLP054
60054 70054 T01670161 10228 20167 53010





000
SAUS44 KEWX 271154
MTRATT
METAR KATT 271151Z AUTO 22003KT 8SM CLR 17/16 A2972 RMK AO2 SLP054
60054 70054 T01670161 10228 20167 53010





000
SAUS44 KEWX 271054
MTRATT
METAR KATT 271051Z AUTO 00000KT 10SM CLR 17/17 A2969 RMK AO2 RAE07
TSB03E19 SLP043 P0000 T01720167





000
SAUS44 KEWX 271026
MTRATT
SPECI KATT 271025Z AUTO 00000KT 9SM SCT120 17/17 A2969 RMK AO2 RAE07
TSB03E19 P0000 T01720167





000
SAUS44 KEWX 270954
MTRATT
METAR KATT 270951Z AUTO 16010G18KT 7SM -TSRA FEW055 SCT075 OVC100
17/16 A2969 RMK AO2 SLP044 P0008 T01720161





000
SAUS44 KEWX 270854
MTRATT
METAR KATT 270851Z AUTO 33006G17KT 10SM -TSRA FEW050 FEW090 BKN110
17/16 A2968 RMK AO2 SLP042 P0005 60046 T01670161 50032





000
SAUS44 KEWX 270854
MTRATT
METAR KATT 270851Z AUTO 33006G17KT 10SM -TSRA FEW050 FEW090 BKN110
17/16 A2968 RMK AO2 SLP042 P0005 60046 T01670161 50032





000
SAUS44 KEWX 270809
MTRATT
SPECI KATT 270806Z AUTO 00000KT 5SM -TSRA BR FEW012 BKN038 OVC090
17/17 A2973 RMK AO2 P0002 T01670167





000
SAUS44 KEWX 270759
MTRATT
SPECI KATT 270758Z AUTO VRB03KT 6SM TSRA BR SCT012 BKN026 OVC090
17/17 A2971 RMK AO2 PRESFR P0001 T01670167





000
SAUS44 KEWX 270751
MTRATT
SPECI KATT 270749Z AUTO VRB05G15KT 1 1/2SM TSRA BR SCT009 BKN015
OVC021 17/17 A2972 RMK AO2 PK WND 30032/0730 RAB30 TSB35B37 P0041





000
SAUS44 KEWX 270743
MTRATT
SPECI KATT 270742Z AUTO 33008G30KT 3/4SM +TSRA BR FEW009 OVC017
17/17 A2974 RMK AO2 PK WND 30032/0730 RAB30 TSB35B37 P0026 T01720167





000
SAUS44 KEWX 270738
MTRATT
SPECI KATT 270735Z AUTO 32012G32KT 1SM +TSRA BR FEW009 OVC015 18/18
A2978 RMK AO2 PK WND 30032/0730 RAB30 TSB35 P0008 T01830178





000
SAUS44 KEWX 270738
MTRATT
SPECI KATT 270735Z AUTO 32012G32KT 1SM +TSRA BR FEW009 OVC015 18/18
A2978 RMK AO2 PK WND 30032/0730 RAB30 TSB35 P0008 T01830178





000
SAUS44 KEWX 270732
MTRATT
SPECI KATT 270731Z AUTO 1 3/4SM -RA BR OVC015 21/21 A2978 RMK AO2 PK
WND 30032/0730 RAB30 PRESRR P0000 T02110206





000
SAUS44 KEWX 270725
MTRATT
SPECI KATT 270724Z AUTO 30006KT 4SM BR OVC015 23/21 A2970 RMK AO2
PRESRR T02280211





000
SAUS44 KEWX 270652
MTRATT
METAR KATT 270651Z AUTO 18010G20KT 160V230 4SM BR OVC014 22/21 A2959
RMK AO2 PRESRR SLP007 T02220211





000
SAUS44 KEWX 270644
MTRATT
SPECI KATT 270642Z AUTO 17008G21KT 4SM BR OVC014 22/21 A2958 RMK AO2
T02220211





000
SAUS44 KEWX 270554
MTRATT
METAR KATT 270551Z AUTO 17008G16KT 4SM BR OVC015 23/21 A2960 RMK AO2
SLP010 T02280211 10261 20228 403000222 58012





000
SAUS44 KEWX 270511
MTRATT
SPECI KATT 270509Z AUTO 16008KT 4SM BR OVC014 23/22 A2961 RMK AO2
T02280217





000
SAUS44 KEWX 270459 COR
MTRATT
METAR KATT 270451Z AUTO 16009G16KT 140V210 4SM BR OVC016 23/22 A2961
RMK AO2 SLP015 T02280217





000
SAUS44 KEWX 270353
MTRATT
METAR KATT 270351Z AUTO 16006G15KT 4SM BR OVC015 23/22 A2964 RMK AO2
SLP023 T02330217





000
SAUS44 KEWX 270259 COR
MTRATT
METAR KATT 270251Z AUTO 18006G16KT 4SM BR OVC015 23/22 A2964 RMK AO2
SLP025 T02330222 53007





000
SAUS44 KEWX 270153
MTRATT
METAR KATT 270151Z AUTO 16010G16KT 5SM BR BKN017 BKN025 OVC030 23/22
A2961 RMK AO2 SLP015 T02330217





000
SAUS44 KEWX 270059 COR
MTRATT
METAR KATT 270051Z AUTO 16011G21KT 4SM BR BKN022 OVC029 24/22 A2960
RMK AO2 SLP011 T02390217





000
SAUS44 KEWX 270027
MTRATT
SPECI KATT 270025Z AUTO 15010G20KT 4SM HZ BKN022 BKN028 BKN036 24/22
A2960 RMK AO2 T02440217





000
SAUS44 KEWX 270016
MTRATT
SPECI KATT 270015Z AUTO 16009G23KT 4SM BR SCT023 BKN033 OVC055 24/22
A2961 RMK AO2 T02390217





000
SAUS44 KEWX 270016
MTRATT
SPECI KATT 270015Z AUTO 16009G23KT 4SM BR SCT023 BKN033 OVC055 24/22
A2961 RMK AO2 T02390217





000
SAUS44 KEWX 262358 COR
MTRATT
METAR KATT 262351Z AUTO 15012G19KT 4SM BR BKN027 OVC037 24/22 A2962
RMK AO2 SLP018 T02390217 10300 20239 56010





000
SAUS44 KEWX 262358 COR
MTRATT
METAR KATT 262351Z AUTO 15012G19KT 4SM BR BKN027 OVC037 24/22 A2962
RMK AO2 SLP018 T02390217 10300 20239 56010





000
SAUS44 KEWX 262344
MTRATT
SPECI KATT 262343Z AUTO 16010G22KT 4SM BR BKN027 BKN036 OVC055 24/22
A2962 RMK AO2 T02390217





000
SAUS44 KEWX 262259 COR
MTRATT
METAR KATT 262251Z AUTO 16009G17KT 110V200 5SM HZ BKN055 28/22 A2962
RMK AO2 SLP018 T02780217





000
SAUS44 KEWX 262259 COR
MTRATT
METAR KATT 262251Z AUTO 16009G17KT 110V200 5SM HZ BKN055 28/22 A2962
RMK AO2 SLP018 T02780217





000
SAUS44 KEWX 262159 COR
MTRATT
METAR KATT 262151Z AUTO 17010G21KT 6SM HZ FEW037 FEW045 BKN050 29/21
A2963 RMK AO2 SLP021 T02890206





000
SAUS44 KEWX 262052
MTRATT
METAR KATT 262051Z AUTO 17008G16KT 8SM BKN040 OVC048 29/21 A2965 RMK
AO2 SLP026 T02890206 58025





000
SAUS44 KEWX 261953
MTRATT
METAR KATT 261951Z AUTO 17007G20KT 9SM BKN040 BKN048 29/21 A2967 RMK
AO2 SLP034 T02940206





000
SAUS44 KEWX 261953
MTRATT
METAR KATT 261951Z AUTO 17007G20KT 9SM BKN040 BKN048 29/21 A2967 RMK
AO2 SLP034 T02940206





000
SAUS44 KEWX 261854
MTRATT
METAR KATT 261851Z AUTO 17008G17KT 10SM BKN035 29/21 A2970 RMK AO2
SLP045 T02890206





000
SAUS44 KEWX 261854
MTRATT
METAR KATT 261851Z AUTO 17008G17KT 10SM BKN035 29/21 A2970 RMK AO2
SLP045 T02890206





    US Dept of Commerce
    National Oceanic and Atmospheric Administration
    National Weather Service
    1325 East West Highway
    Silver Spring, MD 20910
    Page Author: NWS Internet Services Team
Disclaimer
Information Quality
Credits
Glossary
Privacy Policy
Freedom of Information Act (FOIA)
About Us
Career Opportunities